sensor_id;sensor_type;location;lat;lon;timestamp;temperature;humidity
1383;DHT22;685;47.196;11.880;2023-01-20T00:02:18;-2.40;99.90
1383;DHT22;685;47.196;11.880;2023-01-20T00:04:47;-2.50;99.90
1383;DHT22;685;47.196;11.880;2023-01-20T00:07:14;-2.40;99.90
1383;DHT22;685;47.196;11.880;2023-01-20T00:09:42;-2.50;99.90
1383;DHT22;685;47.196;11.880;2023-01-20T00:12:09;-2.70;99.90
1383;DHT22;685;47.196;11.880;2023-01-20T00:14:36;-3.00;99.90
1383;DHT22;685;47.196;11.880;2023-01-20T00:17:02;-3.10;99.90
1383;DHT22;685;47.196;11.880;2023-01-20T00:19:29;-3.30;99.90
1383;DHT22;685;47.196;11.880;2023-01-20T00:21:56;-3.20;99.90
1383;DHT22;685;47.196;11.880;2023-01-20T00:24:23;-3.20;99.90
1383;DHT22;685;47.196;11.880;2023-01-20T00:26:51;-3.20;99.90
1383;DHT22;685;47.196;11.880;2023-01-20T00:29:18;-3.20;99.90
1383;DHT22;685;47.196;11.880;2023-01-20T00:31:45;-3.20;99.90
1383;DHT22;685;47.196;11.880;2023-01-20T00:34:12;-3.10;99.90
1383;DHT22;685;47.196;11.880;2023-01-20T00:36:39;-3.00;99.90
1383;DHT22;685;47.196;11.880;2023-01-20T00:39:06;-3.10;99.90
1383;DHT22;685;47.196;11.880;2023-01-20T00:41:33;-3.10;99.90
1383;DHT22;685;47.196;11.880;2023-01-20T00:44:01;-3.20;99.90
1383;DHT22;685;47.196;11.880;2023-01-20T00:46:28;-3.10;99.90
1383;DHT22;685;47.196;11.880;2023-01-20T00:48:55;-3.00;99.90
1383;DHT22;685;47.196;11.880;2023-01-20T00:51:21;-3.00;99.90
1383;DHT22;685;47.196;11.880;2023-01-20T00:53:48;-3.00;99.90
1383;DHT22;685;47.196;11.880;2023-01-20T00:56:15;-3.00;99.90
1383;DHT22;685;47.196;11.880;2023-01-20T00:58:43;-3.20;99.90
1383;DHT22;685;47.196;11.880;2023-01-20T01:01:11;-3.30;99.90
1383;DHT22;685;47.196;11.880;2023-01-20T01:03:38;-3.30;99.90
1383;DHT22;685;47.196;11.880;2023-01-20T01:06:07;-3.10;99.90
1383;DHT22;685;47.196;11.880;2023-01-20T01:08:34;-3.10;99.90
1383;DHT22;685;47.196;11.880;2023-01-20T01:11:02;-3.30;99.90
1383;DHT22;685;47.196;11.880;2023-01-20T01:13:29;-3.20;99.90
1383;DHT22;685;47.196;11.880;2023-01-20T01:15:56;-3.20;99.90
1383;DHT22;685;47.196;11.880;2023-01-20T01:18:25;-3.30;99.90
1383;DHT22;685;47.196;11.880;2023-01-20T01:20:51;-3.10;99.90
1383;DHT22;685;47.196;11.880;2023-01-20T01:23:18;-2.90;99.90
1383;DHT22;685;47.196;11.880;2023-01-20T01:25:45;-2.70;99.90
1383;DHT22;685;47.196;11.880;2023-01-20T01:28:12;-2.70;99.90
1383;DHT22;685;47.196;11.880;2023-01-20T01:30:39;-2.70;99.90
1383;DHT22;685;47.196;11.880;2023-01-20T01:33:06;-2.60;99.90
1383;DHT22;685;47.196;11.880;2023-01-20T01:35:34;-2.40;99.90
1383;DHT22;685;47.196;11.880;2023-01-20T01:38:01;-2.40;99.90
1383;DHT22;685;47.196;11.880;2023-01-20T01:40:28;-2.30;99.90
1383;DHT22;685;47.196;11.880;2023-01-20T01:42:55;-2.30;99.90
1383;DHT22;685;47.196;11.880;2023-01-20T01:45:26;-2.20;99.90
1383;DHT22;685;47.196;11.880;2023-01-20T01:48:03;-2.30;99.90
1383;DHT22;685;47.196;11.880;2023-01-20T01:50:37;-2.40;99.90
1383;DHT22;685;47.196;11.880;2023-01-20T01:53:05;-2.20;99.90
1383;DHT22;685;47.196;11.880;2023-01-20T01:55:36;-2.30;99.90
1383;DHT22;685;47.196;11.880;2023-01-20T01:58:05;-2.40;99.90
1383;DHT22;685;47.196;11.880;2023-01-20T02:00:33;-2.40;99.90
1383;DHT22;685;47.196;11.880;2023-01-20T02:03:00;-2.40;99.90
1383;DHT22;685;47.196;11.880;2023-01-20T02:05:28;-2.50;99.90
1383;DHT22;685;47.196;11.880;2023-01-20T02:07:57;-2.50;99.90
1383;DHT22;685;47.196;11.880;2023-01-20T02:10:24;-2.40;99.90
1383;DHT22;685;47.196;11.880;2023-01-20T02:12:51;-2.40;99.90
1383;DHT22;685;47.196;11.880;2023-01-20T02:15:23;-2.40;99.90
1383;DHT22;685;47.196;11.880;2023-01-20T02:18:06;-2.40;99.90
1383;DHT22;685;47.196;11.880;2023-01-20T02:23:54;-2.40;99.90
1383;DHT22;685;47.196;11.880;2023-01-20T02:26:42;-2.40;99.90
1383;DHT22;685;47.196;11.880;2023-01-20T02:29:40;-2.50;99.90
1383;DHT22;685;47.196;11.880;2023-01-20T02:32:16;-2.40;99.90
1383;DHT22;685;47.196;11.880;2023-01-20T02:34:51;-2.50;99.90
1383;DHT22;685;47.196;11.880;2023-01-20T02:37:23;-2.40;99.90
1383;DHT22;685;47.196;11.880;2023-01-20T02:39:59;-2.40;99.90
1383;DHT22;685;47.196;11.880;2023-01-20T02:42:35;-2.40;99.90
1383;DHT22;685;47.196;11.880;2023-01-20T02:45:09;-2.50;99.90
1383;DHT22;685;47.196;11.880;2023-01-20T02:47:42;-2.50;99.90
1383;DHT22;685;47.196;11.880;2023-01-20T02:50:12;-2.50;99.90
1383;DHT22;685;47.196;11.880;2023-01-20T02:52:43;-2.50;99.90
1383;DHT22;685;47.196;11.880;2023-01-20T02:55:20;-2.60;99.90
1383;DHT22;685;47.196;11.880;2023-01-20T02:57:50;-2.60;99.90
1383;DHT22;685;47.196;11.880;2023-01-20T03:00:23;-2.50;99.90
1383;DHT22;685;47.196;11.880;2023-01-20T03:02:54;-2.70;99.90
1383;DHT22;685;47.196;11.880;2023-01-20T03:05:26;-2.80;99.90
1383;DHT22;685;47.196;11.880;2023-01-20T03:07:54;-2.60;99.90
1383;DHT22;685;47.196;11.880;2023-01-20T03:10:24;-2.60;99.90
1383;DHT22;685;47.196;11.880;2023-01-20T03:12:54;-2.80;99.90
1383;DHT22;685;47.196;11.880;2023-01-20T03:15:26;-2.80;99.90
1383;DHT22;685;47.196;11.880;2023-01-20T03:17:57;-3.00;99.90
1383;DHT22;685;47.196;11.880;2023-01-20T03:20:24;-3.00;99.90
1383;DHT22;685;47.196;11.880;2023-01-20T03:22:51;-2.90;99.90
1383;DHT22;685;47.196;11.880;2023-01-20T03:25:19;-2.70;99.90
1383;DHT22;685;47.196;11.880;2023-01-20T03:27:46;-3.40;99.90
1383;DHT22;685;47.196;11.880;2023-01-20T03:30:14;-3.20;99.90
1383;DHT22;685;47.196;11.880;2023-01-20T03:32:43;-3.00;99.90
1383;DHT22;685;47.196;11.880;2023-01-20T03:35:12;-3.00;99.90
1383;DHT22;685;47.196;11.880;2023-01-20T03:37:40;-3.00;99.90
1383;DHT22;685;47.196;11.880;2023-01-20T03:40:08;-3.10;99.90
1383;DHT22;685;47.196;11.880;2023-01-20T03:42:42;-3.10;99.90
1383;DHT22;685;47.196;11.880;2023-01-20T03:45:15;-3.40;99.90
1383;DHT22;685;47.196;11.880;2023-01-20T03:47:51;-3.30;99.90
1383;DHT22;685;47.196;11.880;2023-01-20T03:50:31;-3.20;99.90
1383;DHT22;685;47.196;11.880;2023-01-20T03:53:05;-3.30;99.90
1383;DHT22;685;47.196;11.880;2023-01-20T03:55:39;-3.20;99.90
1383;DHT22;685;47.196;11.880;2023-01-20T03:58:09;-2.90;99.90
1383;DHT22;685;47.196;11.880;2023-01-20T04:00:39;-2.90;99.90
1383;DHT22;685;47.196;11.880;2023-01-20T04:03:12;-2.90;99.90
1383;DHT22;685;47.196;11.880;2023-01-20T04:05:50;-2.90;99.90
1383;DHT22;685;47.196;11.880;2023-01-20T04:08:28;-2.80;99.90
1383;DHT22;685;47.196;11.880;2023-01-20T04:11:11;-2.80;99.90
1383;DHT22;685;47.196;11.880;2023-01-20T04:13:47;-2.70;99.90
1383;DHT22;685;47.196;11.880;2023-01-20T04:18:45;-2.60;99.90
1383;DHT22;685;47.196;11.880;2023-01-20T04:21:18;-2.60;99.90
1383;DHT22;685;47.196;11.880;2023-01-20T04:23:51;-2.60;99.90
1383;DHT22;685;47.196;11.880;2023-01-20T04:26:21;-2.60;99.90
1383;DHT22;685;47.196;11.880;2023-01-20T04:28:48;-2.50;99.90
1383;DHT22;685;47.196;11.880;2023-01-20T04:31:16;-2.50;99.90
1383;DHT22;685;47.196;11.880;2023-01-20T04:33:43;-2.60;99.90
1383;DHT22;685;47.196;11.880;2023-01-20T04:36:09;-2.60;99.90
1383;DHT22;685;47.196;11.880;2023-01-20T04:38:38;-2.60;99.90
1383;DHT22;685;47.196;11.880;2023-01-20T04:41:05;-2.60;99.90
1383;DHT22;685;47.196;11.880;2023-01-20T04:43:32;-2.60;99.90
1383;DHT22;685;47.196;11.880;2023-01-20T04:45:59;-2.50;99.90
1383;DHT22;685;47.196;11.880;2023-01-20T04:48:26;-2.60;99.90
1383;DHT22;685;47.196;11.880;2023-01-20T04:50:52;-2.60;99.90
1383;DHT22;685;47.196;11.880;2023-01-20T04:53:19;-2.60;99.90
1383;DHT22;685;47.196;11.880;2023-01-20T04:55:47;-2.70;99.90
1383;DHT22;685;47.196;11.880;2023-01-20T04:58:14;-2.60;99.90
1383;DHT22;685;47.196;11.880;2023-01-20T05:00:41;-2.50;99.90
1383;DHT22;685;47.196;11.880;2023-01-20T05:03:08;-2.50;99.90
1383;DHT22;685;47.196;11.880;2023-01-20T05:05:35;-2.60;99.90
1383;DHT22;685;47.196;11.880;2023-01-20T05:08:02;-2.60;99.90
1383;DHT22;685;47.196;11.880;2023-01-20T05:10:30;-2.50;99.90
1383;DHT22;685;47.196;11.880;2023-01-20T05:12:59;-2.40;99.90
1383;DHT22;685;47.196;11.880;2023-01-20T05:15:27;-2.50;99.90
1383;DHT22;685;47.196;11.880;2023-01-20T05:17:53;-2.60;99.90
1383;DHT22;685;47.196;11.880;2023-01-20T05:20:20;-2.90;99.90
1383;DHT22;685;47.196;11.880;2023-01-20T05:22:47;-3.00;99.90
1383;DHT22;685;47.196;11.880;2023-01-20T05:25:14;-2.90;99.90
1383;DHT22;685;47.196;11.880;2023-01-20T05:27:41;-2.70;99.90
1383;DHT22;685;47.196;11.880;2023-01-20T05:30:12;-2.70;99.90
1383;DHT22;685;47.196;11.880;2023-01-20T05:32:39;-2.60;99.90
1383;DHT22;685;47.196;11.880;2023-01-20T05:35:07;-2.60;99.90
1383;DHT22;685;47.196;11.880;2023-01-20T05:37:35;-2.50;99.90
1383;DHT22;685;47.196;11.880;2023-01-20T05:40:02;-2.50;99.90
1383;DHT22;685;47.196;11.880;2023-01-20T05:42:30;-2.50;99.90
1383;DHT22;685;47.196;11.880;2023-01-20T05:44:57;-2.50;99.90
1383;DHT22;685;47.196;11.880;2023-01-20T05:47:26;-2.50;99.90
1383;DHT22;685;47.196;11.880;2023-01-20T05:49:53;-2.60;99.90
1383;DHT22;685;47.196;11.880;2023-01-20T05:52:20;-2.80;99.90
1383;DHT22;685;47.196;11.880;2023-01-20T05:54:46;-2.90;99.90
1383;DHT22;685;47.196;11.880;2023-01-20T05:57:13;-3.10;99.90
1383;DHT22;685;47.196;11.880;2023-01-20T05:59:43;-3.00;99.90
1383;DHT22;685;47.196;11.880;2023-01-20T06:02:09;-3.00;99.90
1383;DHT22;685;47.196;11.880;2023-01-20T06:04:39;-3.10;99.90
1383;DHT22;685;47.196;11.880;2023-01-20T06:07:06;-3.10;99.90
1383;DHT22;685;47.196;11.880;2023-01-20T06:09:32;-3.00;99.90
1383;DHT22;685;47.196;11.880;2023-01-20T06:11:59;-2.90;99.90
1383;DHT22;685;47.196;11.880;2023-01-20T06:14:26;-2.80;99.90
1383;DHT22;685;47.196;11.880;2023-01-20T06:16:53;-2.70;99.90
1383;DHT22;685;47.196;11.880;2023-01-20T06:19:20;-2.60;99.90
1383;DHT22;685;47.196;11.880;2023-01-20T06:21:48;-2.70;99.90
1383;DHT22;685;47.196;11.880;2023-01-20T06:24:15;-2.90;99.90
1383;DHT22;685;47.196;11.880;2023-01-20T06:26:42;-3.00;99.90
1383;DHT22;685;47.196;11.880;2023-01-20T06:29:09;-3.00;99.90
1383;DHT22;685;47.196;11.880;2023-01-20T06:31:36;-3.10;99.90
1383;DHT22;685;47.196;11.880;2023-01-20T06:34:03;-3.10;99.90
1383;DHT22;685;47.196;11.880;2023-01-20T06:36:30;-3.30;99.90
1383;DHT22;685;47.196;11.880;2023-01-20T06:38:58;-3.30;99.90
1383;DHT22;685;47.196;11.880;2023-01-20T06:41:25;-3.30;99.90
1383;DHT22;685;47.196;11.880;2023-01-20T06:43:52;-3.30;99.90
1383;DHT22;685;47.196;11.880;2023-01-20T06:46:19;-3.30;99.90
1383;DHT22;685;47.196;11.880;2023-01-20T06:48:47;-3.30;99.90
1383;DHT22;685;47.196;11.880;2023-01-20T06:51:15;-3.30;99.90
1383;DHT22;685;47.196;11.880;2023-01-20T06:53:42;-3.20;99.90
1383;DHT22;685;47.196;11.880;2023-01-20T06:56:11;-3.20;99.90
1383;DHT22;685;47.196;11.880;2023-01-20T06:58:39;-3.30;99.90
1383;DHT22;685;47.196;11.880;2023-01-20T07:01:07;-3.30;99.90
1383;DHT22;685;47.196;11.880;2023-01-20T07:03:35;-3.40;99.90
1383;DHT22;685;47.196;11.880;2023-01-20T07:06:04;-3.50;99.90
1383;DHT22;685;47.196;11.880;2023-01-20T07:08:33;-3.30;99.90
1383;DHT22;685;47.196;11.880;2023-01-20T07:11:00;-3.50;99.90
1383;DHT22;685;47.196;11.880;2023-01-20T07:13:28;-3.50;99.90
1383;DHT22;685;47.196;11.880;2023-01-20T07:15:55;-3.30;99.90
1383;DHT22;685;47.196;11.880;2023-01-20T07:18:21;-3.10;99.90
1383;DHT22;685;47.196;11.880;2023-01-20T07:20:52;-3.10;99.90
1383;DHT22;685;47.196;11.880;2023-01-20T07:23:19;-3.10;99.90
1383;DHT22;685;47.196;11.880;2023-01-20T07:25:46;-3.00;99.90
1383;DHT22;685;47.196;11.880;2023-01-20T07:28:13;-3.00;99.90
1383;DHT22;685;47.196;11.880;2023-01-20T07:30:42;-2.90;99.90
1383;DHT22;685;47.196;11.880;2023-01-20T07:33:08;-2.90;99.90
1383;DHT22;685;47.196;11.880;2023-01-20T07:35:35;-2.90;99.90
1383;DHT22;685;47.196;11.880;2023-01-20T07:38:02;-2.80;99.90
1383;DHT22;685;47.196;11.880;2023-01-20T07:40:29;-2.70;99.90
1383;DHT22;685;47.196;11.880;2023-01-20T07:42:56;-2.70;99.90
1383;DHT22;685;47.196;11.880;2023-01-20T07:45:38;-2.70;99.90
1383;DHT22;685;47.196;11.880;2023-01-20T07:48:06;-2.60;99.90
1383;DHT22;685;47.196;11.880;2023-01-20T07:50:33;-2.40;99.90
1383;DHT22;685;47.196;11.880;2023-01-20T07:53:01;-2.30;99.90
1383;DHT22;685;47.196;11.880;2023-01-20T07:55:28;-2.30;99.90
1383;DHT22;685;47.196;11.880;2023-01-20T07:57:55;-2.30;99.90
1383;DHT22;685;47.196;11.880;2023-01-20T08:00:22;-2.40;99.90
1383;DHT22;685;47.196;11.880;2023-01-20T08:02:49;-2.60;99.90
1383;DHT22;685;47.196;11.880;2023-01-20T08:05:17;-2.80;99.90
1383;DHT22;685;47.196;11.880;2023-01-20T08:07:48;-3.00;99.90
1383;DHT22;685;47.196;11.880;2023-01-20T08:10:15;-3.10;99.90
1383;DHT22;685;47.196;11.880;2023-01-20T08:12:42;-3.00;99.90
1383;DHT22;685;47.196;11.880;2023-01-20T08:15:10;-3.00;99.90
1383;DHT22;685;47.196;11.880;2023-01-20T08:17:37;-2.90;99.90
1383;DHT22;685;47.196;11.880;2023-01-20T08:20:05;-2.80;99.90
1383;DHT22;685;47.196;11.880;2023-01-20T08:22:34;-2.80;99.90
1383;DHT22;685;47.196;11.880;2023-01-20T08:25:01;-2.80;99.90
1383;DHT22;685;47.196;11.880;2023-01-20T08:27:28;-2.90;99.90
1383;DHT22;685;47.196;11.880;2023-01-20T08:29:55;-3.10;99.90
1383;DHT22;685;47.196;11.880;2023-01-20T08:32:22;-3.20;99.90
1383;DHT22;685;47.196;11.880;2023-01-20T08:34:49;-3.20;99.90
1383;DHT22;685;47.196;11.880;2023-01-20T08:37:16;-3.10;99.90
1383;DHT22;685;47.196;11.880;2023-01-20T08:39:44;-3.10;99.90
1383;DHT22;685;47.196;11.880;2023-01-20T08:42:11;-2.90;99.90
1383;DHT22;685;47.196;11.880;2023-01-20T08:44:38;-3.00;99.90
1383;DHT22;685;47.196;11.880;2023-01-20T08:47:05;-3.10;99.90
1383;DHT22;685;47.196;11.880;2023-01-20T08:49:32;-3.00;99.90
1383;DHT22;685;47.196;11.880;2023-01-20T08:51:59;-2.90;99.90
1383;DHT22;685;47.196;11.880;2023-01-20T08:54:26;-3.10;99.90
1383;DHT22;685;47.196;11.880;2023-01-20T08:56:55;-3.00;99.90
1383;DHT22;685;47.196;11.880;2023-01-20T08:59:22;-3.10;99.90
1383;DHT22;685;47.196;11.880;2023-01-20T09:01:49;-3.00;99.90
1383;DHT22;685;47.196;11.880;2023-01-20T09:04:16;-2.80;99.90
1383;DHT22;685;47.196;11.880;2023-01-20T09:06:45;-2.40;99.90
1383;DHT22;685;47.196;11.880;2023-01-20T09:09:15;-2.30;99.90
1383;DHT22;685;47.196;11.880;2023-01-20T09:11:43;-2.30;99.90
1383;DHT22;685;47.196;11.880;2023-01-20T09:14:16;-2.30;99.90
1383;DHT22;685;47.196;11.880;2023-01-20T09:16:43;-2.40;99.90
1383;DHT22;685;47.196;11.880;2023-01-20T09:19:10;-2.30;99.90
1383;DHT22;685;47.196;11.880;2023-01-20T09:21:37;-2.20;99.90
1383;DHT22;685;47.196;11.880;2023-01-20T09:24:04;-2.10;99.90
1383;DHT22;685;47.196;11.880;2023-01-20T09:26:32;-2.00;99.90
1383;DHT22;685;47.196;11.880;2023-01-20T09:29:03;-2.00;99.90
1383;DHT22;685;47.196;11.880;2023-01-20T09:31:35;-2.00;99.90
1383;DHT22;685;47.196;11.880;2023-01-20T09:34:02;-2.10;99.90
1383;DHT22;685;47.196;11.880;2023-01-20T09:36:28;-2.10;99.90
1383;DHT22;685;47.196;11.880;2023-01-20T09:38:56;-2.20;99.90
1383;DHT22;685;47.196;11.880;2023-01-20T09:41:42;-2.10;99.90
1383;DHT22;685;47.196;11.880;2023-01-20T09:44:48;-2.10;99.90
1383;DHT22;685;47.196;11.880;2023-01-20T09:47:26;-2.00;99.90
1383;DHT22;685;47.196;11.880;2023-01-20T09:53:09;-2.20;99.90
1383;DHT22;685;47.196;11.880;2023-01-20T09:55:45;-2.20;99.90
1383;DHT22;685;47.196;11.880;2023-01-20T09:58:20;-2.00;99.90
1383;DHT22;685;47.196;11.880;2023-01-20T10:00:54;-1.80;99.90
1383;DHT22;685;47.196;11.880;2023-01-20T10:03:31;-1.60;99.90
1383;DHT22;685;47.196;11.880;2023-01-20T10:06:07;-1.60;99.90
1383;DHT22;685;47.196;11.880;2023-01-20T10:08:42;-1.70;99.90
1383;DHT22;685;47.196;11.880;2023-01-20T10:11:14;-1.70;99.90
1383;DHT22;685;47.196;11.880;2023-01-20T10:13:44;-1.70;99.90
1383;DHT22;685;47.196;11.880;2023-01-20T10:16:22;-1.70;99.90
1383;DHT22;685;47.196;11.880;2023-01-20T10:18:56;-1.80;99.90
1383;DHT22;685;47.196;11.880;2023-01-20T10:21:31;-1.50;99.90
1383;DHT22;685;47.196;11.880;2023-01-20T10:24:03;-1.50;99.90
1383;DHT22;685;47.196;11.880;2023-01-20T10:26:37;-1.70;99.90
1383;DHT22;685;47.196;11.880;2023-01-20T10:29:10;-1.60;99.90
1383;DHT22;685;47.196;11.880;2023-01-20T10:31:43;-1.40;99.90
1383;DHT22;685;47.196;11.880;2023-01-20T10:34:17;-1.50;99.90
1383;DHT22;685;47.196;11.880;2023-01-20T10:36:49;-1.60;99.90
1383;DHT22;685;47.196;11.880;2023-01-20T10:39:26;-1.70;99.90
1383;DHT22;685;47.196;11.880;2023-01-20T10:41:58;-1.60;99.90
1383;DHT22;685;47.196;11.880;2023-01-20T10:44:27;-1.40;99.90
1383;DHT22;685;47.196;11.880;2023-01-20T10:47:10;-1.10;99.90
1383;DHT22;685;47.196;11.880;2023-01-20T10:49:56;-1.00;99.90
1383;DHT22;685;47.196;11.880;2023-01-20T10:52:40;-0.80;99.90
1383;DHT22;685;47.196;11.880;2023-01-20T10:55:18;-0.70;99.90
1383;DHT22;685;47.196;11.880;2023-01-20T10:57:48;-0.80;99.90
1383;DHT22;685;47.196;11.880;2023-01-20T11:00:22;-1.10;99.90
1383;DHT22;685;47.196;11.880;2023-01-20T11:02:49;-1.30;99.90
1383;DHT22;685;47.196;11.880;2023-01-20T11:05:21;-1.30;99.90
1383;DHT22;685;47.196;11.880;2023-01-20T11:07:51;-1.30;99.90
1383;DHT22;685;47.196;11.880;2023-01-20T11:10:21;-1.30;99.90
1383;DHT22;685;47.196;11.880;2023-01-20T11:12:51;-1.40;99.90
1383;DHT22;685;47.196;11.880;2023-01-20T11:15:20;-1.30;99.90
1383;DHT22;685;47.196;11.880;2023-01-20T11:18:18;-1.20;99.90
1383;DHT22;685;47.196;11.880;2023-01-20T11:20:49;-1.20;99.90
1383;DHT22;685;47.196;11.880;2023-01-20T11:23:30;-1.10;99.90
1383;DHT22;685;47.196;11.880;2023-01-20T11:25:59;-0.90;99.90
1383;DHT22;685;47.196;11.880;2023-01-20T11:28:34;-0.80;99.90
1383;DHT22;685;47.196;11.880;2023-01-20T11:31:03;-0.70;99.90
1383;DHT22;685;47.196;11.880;2023-01-20T11:33:30;-0.50;99.90
1383;DHT22;685;47.196;11.880;2023-01-20T11:36:01;-0.40;99.90
1383;DHT22;685;47.196;11.880;2023-01-20T11:38:29;-0.50;99.90
1383;DHT22;685;47.196;11.880;2023-01-20T11:40:57;-0.80;99.90
1383;DHT22;685;47.196;11.880;2023-01-20T11:43:29;-0.90;99.90
1383;DHT22;685;47.196;11.880;2023-01-20T11:46:19;-1.00;99.90
1383;DHT22;685;47.196;11.880;2023-01-20T11:48:47;-0.90;99.90
1383;DHT22;685;47.196;11.880;2023-01-20T11:51:24;-0.90;99.90
1383;DHT22;685;47.196;11.880;2023-01-20T11:54:05;-0.80;99.90
1383;DHT22;685;47.196;11.880;2023-01-20T11:56:38;-0.90;99.90
1383;DHT22;685;47.196;11.880;2023-01-20T11:59:17;-0.80;99.90
1383;DHT22;685;47.196;11.880;2023-01-20T12:01:59;-0.90;99.90
1383;DHT22;685;47.196;11.880;2023-01-20T12:04:55;-0.70;99.90
1383;DHT22;685;47.196;11.880;2023-01-20T12:07:28;-0.80;99.90
1383;DHT22;685;47.196;11.880;2023-01-20T12:09:59;-0.70;99.90
1383;DHT22;685;47.196;11.880;2023-01-20T12:12:35;-0.70;99.90
1383;DHT22;685;47.196;11.880;2023-01-20T12:15:08;-0.70;99.90
1383;DHT22;685;47.196;11.880;2023-01-20T12:17:40;-0.80;99.90
1383;DHT22;685;47.196;11.880;2023-01-20T12:20:16;-0.80;99.90
1383;DHT22;685;47.196;11.880;2023-01-20T12:22:58;-0.70;99.90
1383;DHT22;685;47.196;11.880;2023-01-20T12:25:28;-0.70;99.90
1383;DHT22;685;47.196;11.880;2023-01-20T12:27:58;-0.70;99.90
1383;DHT22;685;47.196;11.880;2023-01-20T12:30:45;-0.80;99.90
1383;DHT22;685;47.196;11.880;2023-01-20T12:33:20;-0.70;99.90
1383;DHT22;685;47.196;11.880;2023-01-20T12:36:11;-0.70;99.90
1383;DHT22;685;47.196;11.880;2023-01-20T12:38:57;-0.70;99.90
1383;DHT22;685;47.196;11.880;2023-01-20T12:41:39;-0.60;99.90
1383;DHT22;685;47.196;11.880;2023-01-20T12:44:14;-0.50;99.90
1383;DHT22;685;47.196;11.880;2023-01-20T12:46:45;-0.60;99.90
1383;DHT22;685;47.196;11.880;2023-01-20T12:49:33;-0.70;99.90
1383;DHT22;685;47.196;11.880;2023-01-20T12:52:14;-0.80;99.90
1383;DHT22;685;47.196;11.880;2023-01-20T12:55:01;-0.90;99.90
1383;DHT22;685;47.196;11.880;2023-01-20T12:57:50;-1.00;99.90
1383;DHT22;685;47.196;11.880;2023-01-20T13:00:35;-0.90;99.90
1383;DHT22;685;47.196;11.880;2023-01-20T13:03:30;-0.80;99.90
1383;DHT22;685;47.196;11.880;2023-01-20T13:06:32;-0.60;99.90
1383;DHT22;685;47.196;11.880;2023-01-20T13:09:14;-0.50;99.90
1383;DHT22;685;47.196;11.880;2023-01-20T13:11:58;-0.50;99.90
1383;DHT22;685;47.196;11.880;2023-01-20T13:14:32;-0.70;99.90
1383;DHT22;685;47.196;11.880;2023-01-20T13:17:12;-0.70;99.90
1383;DHT22;685;47.196;11.880;2023-01-20T13:19:40;-0.70;99.90
1383;DHT22;685;47.196;11.880;2023-01-20T13:22:12;-0.60;99.90
1383;DHT22;685;47.196;11.880;2023-01-20T13:24:45;-0.50;99.90
1383;DHT22;685;47.196;11.880;2023-01-20T13:27:14;-0.60;99.90
1383;DHT22;685;47.196;11.880;2023-01-20T13:29:52;-0.50;99.90
1383;DHT22;685;47.196;11.880;2023-01-20T13:32:28;-0.60;99.90
1383;DHT22;685;47.196;11.880;2023-01-20T13:34:56;-0.70;99.90
1383;DHT22;685;47.196;11.880;2023-01-20T13:37:26;-0.70;99.90
1383;DHT22;685;47.196;11.880;2023-01-20T13:39:54;-0.70;99.90
1383;DHT22;685;47.196;11.880;2023-01-20T13:42:48;-0.50;99.90
1383;DHT22;685;47.196;11.880;2023-01-20T13:45:23;-0.50;99.90
1383;DHT22;685;47.196;11.880;2023-01-20T13:48:21;-0.60;99.90
1383;DHT22;685;47.196;11.880;2023-01-20T13:50:48;-0.60;99.90
1383;DHT22;685;47.196;11.880;2023-01-20T13:53:27;-0.70;99.90
1383;DHT22;685;47.196;11.880;2023-01-20T13:55:58;-1.00;99.90
1383;DHT22;685;47.196;11.880;2023-01-20T13:58:28;-1.00;99.90
1383;DHT22;685;47.196;11.880;2023-01-20T14:00:57;-0.90;99.90
1383;DHT22;685;47.196;11.880;2023-01-20T14:03:26;-0.90;99.90
1383;DHT22;685;47.196;11.880;2023-01-20T14:05:56;-0.80;99.90
1383;DHT22;685;47.196;11.880;2023-01-20T14:08:25;-0.70;99.90
1383;DHT22;685;47.196;11.880;2023-01-20T14:11:05;-0.70;99.90
1383;DHT22;685;47.196;11.880;2023-01-20T14:13:34;-0.80;99.90
1383;DHT22;685;47.196;11.880;2023-01-20T14:16:01;-0.70;99.90
1383;DHT22;685;47.196;11.880;2023-01-20T14:18:28;-0.70;99.90
1383;DHT22;685;47.196;11.880;2023-01-20T14:20:58;-0.90;99.90
1383;DHT22;685;47.196;11.880;2023-01-20T14:23:28;-0.90;99.90
1383;DHT22;685;47.196;11.880;2023-01-20T14:25:57;-1.20;99.90
1383;DHT22;685;47.196;11.880;2023-01-20T14:28:24;-1.20;99.90
1383;DHT22;685;47.196;11.880;2023-01-20T14:31:11;-1.20;99.90
1383;DHT22;685;47.196;11.880;2023-01-20T14:33:45;-1.20;99.90
1383;DHT22;685;47.196;11.880;2023-01-20T14:36:15;-1.20;99.90
1383;DHT22;685;47.196;11.880;2023-01-20T14:38:44;-1.10;99.90
1383;DHT22;685;47.196;11.880;2023-01-20T14:41:25;-1.10;99.90
1383;DHT22;685;47.196;11.880;2023-01-20T14:43:52;-1.20;99.90
1383;DHT22;685;47.196;11.880;2023-01-20T14:46:21;-1.20;99.90
1383;DHT22;685;47.196;11.880;2023-01-20T14:48:48;-1.10;99.90
1383;DHT22;685;47.196;11.880;2023-01-20T14:51:15;-1.10;99.90
1383;DHT22;685;47.196;11.880;2023-01-20T14:53:43;-1.10;99.90
1383;DHT22;685;47.196;11.880;2023-01-20T14:56:16;-1.20;99.90
1383;DHT22;685;47.196;11.880;2023-01-20T14:58:45;-1.10;99.90
1383;DHT22;685;47.196;11.880;2023-01-20T15:01:21;-1.20;99.90
1383;DHT22;685;47.196;11.880;2023-01-20T15:03:55;-1.20;99.90
1383;DHT22;685;47.196;11.880;2023-01-20T15:06:24;-1.30;99.90
1383;DHT22;685;47.196;11.880;2023-01-20T15:08:52;-1.30;99.90
1383;DHT22;685;47.196;11.880;2023-01-20T15:11:24;-1.30;99.90
1383;DHT22;685;47.196;11.880;2023-01-20T15:14:08;-1.20;99.90
1383;DHT22;685;47.196;11.880;2023-01-20T15:16:49;-1.00;99.90
1383;DHT22;685;47.196;11.880;2023-01-20T15:19:31;-0.90;99.90
1383;DHT22;685;47.196;11.880;2023-01-20T15:22:25;-1.20;99.90
1383;DHT22;685;47.196;11.880;2023-01-20T15:24:53;-1.20;99.90
1383;DHT22;685;47.196;11.880;2023-01-20T15:27:37;-1.30;99.90
1383;DHT22;685;47.196;11.880;2023-01-20T15:30:17;-1.40;99.90
1383;DHT22;685;47.196;11.880;2023-01-20T15:32:47;-1.50;99.90
1383;DHT22;685;47.196;11.880;2023-01-20T15:35:15;-1.40;99.90
1383;DHT22;685;47.196;11.880;2023-01-20T15:37:44;-1.40;99.90
1383;DHT22;685;47.196;11.880;2023-01-20T15:40:16;-1.40;99.90
1383;DHT22;685;47.196;11.880;2023-01-20T15:42:44;-1.40;99.90
1383;DHT22;685;47.196;11.880;2023-01-20T15:45:12;-1.40;99.90
1383;DHT22;685;47.196;11.880;2023-01-20T15:47:40;-1.40;99.90
1383;DHT22;685;47.196;11.880;2023-01-20T15:50:14;-1.30;99.90
1383;DHT22;685;47.196;11.880;2023-01-20T15:52:41;-1.40;99.90
1383;DHT22;685;47.196;11.880;2023-01-20T15:55:11;-1.50;99.90
1383;DHT22;685;47.196;11.880;2023-01-20T15:57:38;-1.50;99.90
1383;DHT22;685;47.196;11.880;2023-01-20T16:00:09;-1.50;99.90
1383;DHT22;685;47.196;11.880;2023-01-20T16:02:40;-1.50;99.90
1383;DHT22;685;47.196;11.880;2023-01-20T16:05:07;-1.60;99.90
1383;DHT22;685;47.196;11.880;2023-01-20T16:07:38;-1.50;99.90
1383;DHT22;685;47.196;11.880;2023-01-20T16:10:06;-1.50;99.90
1383;DHT22;685;47.196;11.880;2023-01-20T16:12:33;-1.40;99.90
1383;DHT22;685;47.196;11.880;2023-01-20T16:15:00;-1.40;99.90
1383;DHT22;685;47.196;11.880;2023-01-20T16:17:29;-1.40;99.90
1383;DHT22;685;47.196;11.880;2023-01-20T16:19:56;-1.40;99.90
1383;DHT22;685;47.196;11.880;2023-01-20T16:22:23;-1.50;99.90
1383;DHT22;685;47.196;11.880;2023-01-20T16:24:52;-1.60;99.90
1383;DHT22;685;47.196;11.880;2023-01-20T16:27:20;-1.50;99.90
1383;DHT22;685;47.196;11.880;2023-01-20T16:29:48;-1.50;99.90
1383;DHT22;685;47.196;11.880;2023-01-20T16:32:15;-1.40;99.90
1383;DHT22;685;47.196;11.880;2023-01-20T16:34:44;-1.50;99.90
1383;DHT22;685;47.196;11.880;2023-01-20T16:37:12;-1.50;99.90